Time;durP1;ratioP1;P1;durP2;ratioP2;P2;SDS_P1;SDS_P2;PMS_P1;PMS_P2;Temp;Humidity;BMP_temperature;BMP_pressure;BME280_temperature;BME280_humidity;BME280_pressure;Samples;Min_cycle;Max_cycle;Signal;HPM_P1;HPM_P2
2024/01/22 00:01:18;;;;;;;9.17;3.70;;;7.10;99.90;;;;;;4845231;29;20062;-92
2024/01/22 00:07:04;;;;;;;11.87;4.47;;;7.10;99.90;;;;;;4899444;29;20112;-90
2024/01/22 00:13:03;;;;;;;13.23;4.30;;;8.60;99.90;;;;;;4878772;29;20461;-90
2024/01/22 00:56:06;;;;;;;9.43;3.73;;;7.40;99.90;;;;;;4911728;29;20511;-89
2024/01/22 00:58:35;;;;;;;12.13;3.80;;;7.50;99.90;;;;;;4899594;29;20055;-91
2024/01/22 01:05:19;;;;;;;12.33;3.57;;;7.40;99.90;;;;;;4937125;29;20070;-91
2024/01/22 01:07:47;;;;;;;10.03;3.50;;;8.20;99.90;;;;;;4934358;29;20048;-91
2024/01/22 01:10:19;;;;;;;8.60;3.53;;;9.00;99.90;;;;;;4923267;29;20066;-91
2024/01/22 01:49:55;;;;;;;9.87;3.03;;;7.00;99.90;;;;;;5128739;23;20063;-87
2024/01/22 01:55:26;;;;;;;9.70;3.30;;;8.00;99.90;;;;;;5558546;23;20045;-91
2024/01/22 02:13:49;;;;;;;9.27;3.30;;;7.70;99.90;;;;;;4939562;23;20052;-92
2024/01/22 02:24:02;;;;;;;10.23;3.40;;;8.00;99.90;;;;;;4912428;23;20445;-91
2024/01/22 02:31:21;;;;;;;;;;;;;;;;;;;;;
2024/01/22 02:34:03;;;;;;;11.43;3.43;;;7.50;99.90;;;;;;4908500;29;20064;-89
2024/01/22 02:36:29;;;;;;;10.33;3.30;;;7.10;99.90;;;;;;4905020;29;20118;-90
2024/01/22 02:44:34;;;;;;;10.40;3.40;;;8.00;99.90;;;;;;4972200;23;20056;-89
2024/01/22 02:47:37;;;;;;;9.37;3.00;;;9.70;99.90;;;;;;4949236;28;20502;-88
2024/01/22 02:50:02;;;;;;;;;;;9.50;99.90;;;;;;4938916;29;20047;-91
2024/01/22 02:52:31;;;;;;;9.57;3.50;;;8.10;99.90;;;;;;4947787;29;19913;-90
2024/01/22 02:58:12;;;;;;;8.98;3.40;;;9.80;99.90;;;;;;4937071;29;20047;-91
2024/01/22 03:00:37;;;;;;;9.97;3.30;;;7.40;99.90;;;;;;4860117;29;20482;-88
2024/01/22 03:05:48;;;;;;;;;;;;;;;;;;;;;
2024/01/22 03:08:33;;;;;;;9.10;3.13;;;8.90;99.90;;;;;;4890293;29;20123;-91
2024/01/22 03:11:11;;;;;;;9.80;3.30;;;9.90;99.90;;;;;;4921976;23;20141;-91
2024/01/22 03:14:41;;;;;;;9.27;3.27;;;7.50;99.90;;;;;;4957470;23;20098;-91
2024/01/22 03:17:38;;;;;;;10.50;3.30;;;7.70;99.90;;;;;;4921027;29;20495;-89
2024/01/22 03:20:26;;;;;;;8.40;3.10;;;9.10;99.90;;;;;;4917784;29;20404;-88
2024/01/22 03:23:19;;;;;;;10.23;3.43;;;8.20;99.90;;;;;;4916761;29;20040;-89
2024/01/22 03:25:45;;;;;;;9.00;3.13;;;8.00;99.90;;;;;;5287336;23;20052;-88
2024/01/22 03:28:11;;;;;;;8.87;3.00;;;8.10;99.90;;;;;;4923250;29;20373;-87
2024/01/22 03:30:42;;;;;;;8.80;3.40;;;9.50;99.90;;;;;;4918035;29;20613;-88
2024/01/22 03:33:11;;;;;;;11.50;3.60;;;8.60;99.90;;;;;;4917528;29;20048;-87
2024/01/22 03:35:57;;;;;;;11.33;3.30;;;9.30;99.90;;;;;;4917001;29;20070;-87
2024/01/22 03:38:41;;;;;;;8.80;3.20;;;8.10;99.90;;;;;;4917586;29;20040;-87
2024/01/22 03:41:13;;;;;;;10.80;3.47;;;8.00;99.90;;;;;;4917387;29;20508;-88
2024/01/22 03:43:45;;;;;;;9.60;4.00;;;9.40;99.90;;;;;;4917267;29;20083;-88
2024/01/22 03:46:45;;;;;;;10.10;3.37;;;9.30;99.90;;;;;;4917516;29;20055;-88
2024/01/22 03:49:11;;;;;;;8.70;3.17;;;8.60;99.90;;;;;;4918937;29;20044;-87
2024/01/22 03:55:26;;;;;;;9.75;3.08;;;7.20;99.90;;;;;;4917414;29;20052;-87
2024/01/22 03:58:13;;;;;;;;;;;9.30;99.90;;;;;;4916901;29;20091;-87
2024/01/22 04:00:39;;;;;;;9.63;3.43;;;8.10;99.90;;;;;;4917709;29;19923;-88
2024/01/22 04:03:05;;;;;;;9.03;3.10;;;9.50;99.90;;;;;;4918721;29;20047;-88
2024/01/22 04:05:34;;;;;;;8.63;3.23;;;7.90;99.90;;;;;;4916387;29;20507;-89
2024/01/22 04:07:59;;;;;;;7.63;2.90;;;9.10;99.90;;;;;;4917217;29;20447;-88
2024/01/22 04:10:26;;;;;;;8.73;3.30;;;9.50;99.90;;;;;;4916995;29;20060;-87
2024/01/22 04:13:13;;;;;;;8.87;3.30;;;9.80;99.90;;;;;;4970165;23;20146;-89
2024/01/22 04:15:39;;;;;;;9.90;3.40;;;7.40;99.90;;;;;;4942796;23;20052;-88
2024/01/22 04:18:06;;;;;;;8.80;3.30;;;8.20;99.90;;;;;;4934178;29;20460;-87
2024/01/22 04:20:32;;;;;;;9.47;3.30;;;9.30;99.90;;;;;;4939399;29;20403;-88
2024/01/22 04:22:58;;;;;;;10.33;3.30;;;9.80;99.90;;;;;;4938483;29;20039;-87
2024/01/22 04:25:23;;;;;;;8.90;3.20;;;9.90;99.90;;;;;;4938638;29;20043;-88
2024/01/22 04:27:57;;;;;;;8.43;3.23;;;9.70;99.90;;;;;;4939211;29;20054;-88
2024/01/22 04:30:41;;;;;;;7.80;3.20;;;8.50;99.90;;;;;;4938850;29;20047;-87
2024/01/22 04:33:13;;;;;;;8.67;3.23;;;8.20;99.90;;;;;;4937836;29;20083;-88
2024/01/22 04:35:51;;;;;;;9.88;3.40;;;8.50;99.90;;;;;;4938530;29;20079;-87
2024/01/22 04:38:32;;;;;;;9.23;3.00;;;10.10;99.90;;;;;;4938713;29;20046;-88
2024/01/22 04:41:03;;;;;;;9.70;3.20;;;9.40;99.90;;;;;;4938847;29;20142;-88
2024/01/22 04:43:41;;;;;;;8.37;3.50;;;9.70;99.90;;;;;;4938870;29;20047;-88
2024/01/22 04:46:19;;;;;;;8.93;3.37;;;9.80;99.90;;;;;;4937677;29;20054;-88
2024/01/22 04:48:54;;;;;;;8.73;3.07;;;8.50;99.90;;;;;;4938771;29;20499;-88
2024/01/22 04:51:28;;;;;;;8.90;3.30;;;9.00;99.90;;;;;;4938580;29;20059;-87
2024/01/22 04:54:06;;;;;;;8.60;3.38;;;10.00;99.90;;;;;;4900075;29;20048;-87
2024/01/22 04:56:47;;;;;;;11.35;3.97;;;9.60;99.90;;;;;;4903969;29;20497;-87
2024/01/22 04:59:16;;;;;;;10.48;3.75;;;10.20;99.90;;;;;;4938090;29;20055;-87
2024/01/22 05:01:53;;;;;;;9.13;3.00;;;10.10;99.90;;;;;;4917481;29;20044;-87
2024/01/22 05:04:34;;;;;;;10.75;3.45;;;8.60;99.90;;;;;;4902431;29;20048;-87
2024/01/22 05:07:15;;;;;;;8.98;3.47;;;9.70;99.90;;;;;;4907881;28;20082;-87
2024/01/22 05:09:54;;;;;;;8.60;3.03;;;8.70;99.90;;;;;;4954794;28;20047;-87
2024/01/22 05:12:26;;;;;;;11.32;3.10;;;9.30;99.90;;;;;;4938903;29;20024;-87
2024/01/22 05:15:07;;;;;;;8.77;2.97;;;10.30;99.90;;;;;;4937150;28;20075;-88
2024/01/22 05:17:42;;;;;;;7.90;2.67;;;8.60;99.90;;;;;;4938253;29;20051;-88
2024/01/22 05:20:17;;;;;;;8.17;2.87;;;10.30;99.90;;;;;;4938230;29;20035;-87
2024/01/22 05:22:51;;;;;;;7.88;3.00;;;10.40;99.90;;;;;;4937416;29;20047;-87
2024/01/22 05:25:27;;;;;;;7.20;2.75;;;10.40;99.90;;;;;;4938126;29;20133;-88
2024/01/22 05:27:56;;;;;;;7.90;3.08;;;8.20;99.90;;;;;;4936983;28;20054;-88
2024/01/22 05:30:30;;;;;;;8.23;2.63;;;9.00;99.90;;;;;;4938487;29;20134;-87
2024/01/22 05:32:55;;;;;;;;;;;9.30;99.90;;;;;;4938336;29;20047;-87
2024/01/22 05:35:35;;;;;;;7.68;2.70;;;9.00;99.90;;;;;;4937060;29;19929;-88
2024/01/22 05:38:07;;;;;;;7.10;2.70;;;9.20;99.90;;;;;;4937348;29;20514;-88
2024/01/22 05:40:38;;;;;;;7.40;2.75;;;9.20;99.90;;;;;;4938270;29;20085;-87
2024/01/22 05:43:04;;;;;;;8.82;2.72;;;8.20;99.90;;;;;;4937627;29;20051;-88
2024/01/22 05:45:42;;;;;;;7.78;2.95;;;10.10;99.90;;;;;;4939708;29;20400;-88
2024/01/22 05:48:20;;;;;;;7.97;2.90;;;9.40;99.90;;;;;;4937642;28;20058;-88
2024/01/22 05:50:51;;;;;;;9.60;2.92;;;9.20;99.90;;;;;;4938110;29;20124;-89
2024/01/22 05:53:26;;;;;;;8.35;2.92;;;8.80;99.90;;;;;;4938252;29;20047;-89
2024/01/22 05:56:06;;;;;;;7.15;2.78;;;10.80;99.90;;;;;;4937820;29;20049;-89
2024/01/22 05:58:41;;;;;;;7.80;3.10;;;9.50;99.90;;;;;;4937623;29;20440;-88
2024/01/22 06:01:10;;;;;;;8.70;2.70;;;10.70;99.90;;;;;;4954223;28;20079;-87
2024/01/22 06:03:35;;;;;;;8.50;2.90;;;10.90;99.90;;;;;;4936854;29;20082;-88
2024/01/22 06:06:05;;;;;;;8.10;3.13;;;9.70;99.90;;;;;;4937090;29;20054;-88
2024/01/22 06:08:33;;;;;;;8.00;2.83;;;9.50;99.90;;;;;;4937480;29;20105;-88
2024/01/22 06:11:15;;;;;;;8.18;2.92;;;9.50;99.90;;;;;;4936652;29;20500;-87
2024/01/22 06:13:50;;;;;;;6.93;2.53;;;11.30;99.90;;;;;;4936960;29;20043;-88
2024/01/22 06:16:20;;;;;;;8.77;2.80;;;9.10;99.90;;;;;;4934506;29;20059;-88
2024/01/22 06:18:52;;;;;;;6.75;2.58;;;11.00;99.90;;;;;;4953720;28;20114;-87
2024/01/22 06:21:27;;;;;;;6.90;2.58;;;11.30;99.90;;;;;;4937248;29;20051;-86
2024/01/22 06:24:02;;;;;;;7.40;2.38;;;9.30;99.90;;;;;;4936578;29;20055;-86
2024/01/22 06:26:40;;;;;;;7.28;2.30;;;9.50;99.90;;;;;;4929548;29;20043;-86
2024/01/22 06:29:13;;;;;;;7.80;2.78;;;10.90;99.90;;;;;;4918413;29;20055;-82
2024/01/22 06:31:39;;;;;;;7.15;2.35;;;9.70;99.90;;;;;;4917544;29;20048;-83
2024/01/22 06:34:05;;;;;;;7.22;2.40;;;9.60;99.90;;;;;;4934191;29;20134;-84
2024/01/22 06:36:31;;;;;;;7.03;2.55;;;11.20;99.90;;;;;;4936832;29;20130;-84
2024/01/22 06:38:57;;;;;;;7.70;2.40;;;9.70;99.90;;;;;;4933842;29;20089;-86
2024/01/22 06:41:23;;;;;;;9.90;2.70;;;10.10;99.90;;;;;;4912063;29;20445;-87
2024/01/22 06:43:50;;;;;;;7.85;2.72;;;11.10;99.90;;;;;;4915082;29;20054;-87
2024/01/22 06:46:16;;;;;;;8.10;2.70;;;9.70;99.90;;;;;;4906288;29;20060;-86
2024/01/22 06:48:41;;;;;;;6.80;2.47;;;10.20;99.90;;;;;;4910763;29;20077;-88
2024/01/22 06:51:09;;;;;;;7.30;2.60;;;9.70;99.90;;;;;;4905204;29;20044;-85
2024/01/22 06:53:35;;;;;;;9.05;2.83;;;10.60;99.90;;;;;;4915877;29;20128;-87
2024/01/22 06:56:00;;;;;;;6.85;2.60;;;10.90;99.90;;;;;;4906442;29;20067;-86
2024/01/22 06:58:26;;;;;;;7.32;2.63;;;9.70;99.90;;;;;;4907542;29;20059;-86
2024/01/22 07:00:52;;;;;;;7.55;2.58;;;10.30;99.90;;;;;;4905573;29;20052;-85
2024/01/22 07:03:20;;;;;;;9.75;2.80;;;10.50;99.90;;;;;;4910256;29;20040;-86
2024/01/22 07:05:46;;;;;;;7.55;2.80;;;9.80;99.90;;;;;;4911567;29;20129;-86
2024/01/22 07:08:12;;;;;;;7.80;2.63;;;9.80;99.90;;;;;;4927420;29;20058;-86
2024/01/22 07:10:40;;;;;;;10.70;2.90;;;9.80;99.90;;;;;;4908779;29;20056;-86
2024/01/22 07:13:06;;;;;;;9.90;2.88;;;9.80;99.90;;;;;;4913729;29;20075;-89
2024/01/22 07:15:32;;;;;;;7.50;2.35;;;10.30;99.90;;;;;;4928167;29;20126;-87
2024/01/22 07:17:58;;;;;;;7.97;2.40;;;10.40;99.90;;;;;;4918295;29;20504;-87
2024/01/22 07:20:23;;;;;;;9.25;2.28;;;9.90;99.90;;;;;;4910495;29;20060;-88
2024/01/22 07:22:49;;;;;;;9.77;2.42;;;9.90;99.90;;;;;;4916163;29;20048;-88
2024/01/22 07:25:16;;;;;;;6.82;2.40;;;10.70;99.90;;;;;;4910513;29;20135;-88
2024/01/22 07:27:42;;;;;;;7.70;2.03;;;9.90;99.90;;;;;;4913240;29;20138;-88
2024/01/22 07:30:11;;;;;;;7.72;2.08;;;10.00;99.90;;;;;;4910436;29;20040;-88
2024/01/22 07:32:38;;;;;;;9.02;2.33;;;10.00;99.90;;;;;;4914149;29;20059;-87
2024/01/22 07:35:07;;;;;;;12.80;2.40;;;11.00;99.90;;;;;;4909515;29;20048;-87
2024/01/22 07:37:37;;;;;;;10.55;2.22;;;11.10;99.90;;;;;;4925107;29;20044;-84
2024/01/22 07:40:09;;;;;;;5.28;1.70;;;10.20;99.90;;;;;;4911155;29;20566;-85
2024/01/22 07:42:35;;;;;;;9.55;2.10;;;10.20;99.90;;;;;;4912426;29;20048;-85
2024/01/22 07:45:01;;;;;;;9.02;2.03;;;10.90;99.90;;;;;;4924994;29;20552;-85
2024/01/22 07:47:27;;;;;;;7.97;2.58;;;10.30;99.90;;;;;;4909827;29;20048;-84
2024/01/22 07:49:54;;;;;;;12.15;2.22;;;11.50;99.90;;;;;;4910406;29;20048;-85
2024/01/22 07:52:21;;;;;;;7.28;2.20;;;11.40;99.90;;;;;;4912022;29;20047;-85
2024/01/22 07:54:47;;;;;;;15.27;3.08;;;10.50;99.90;;;;;;4909836;29;20055;-85
2024/01/22 07:57:13;;;;;;;10.05;2.30;;;11.10;99.90;;;;;;4913944;29;20083;-84
2024/01/22 07:59:38;;;;;;;11.40;2.20;;;10.50;99.90;;;;;;4915053;29;20060;-86
2024/01/22 08:02:06;;;;;;;12.02;3.17;;;11.40;99.90;;;;;;4911138;29;20529;-87
2024/01/22 08:04:32;;;;;;;11.55;3.13;;;10.60;99.90;;;;;;4918667;29;20072;-84
2024/01/22 08:07:02;;;;;;;14.90;3.13;;;11.50;99.90;;;;;;4900989;29;20465;-85
2024/01/22 08:09:28;;;;;;;10.23;2.47;;;11.10;99.90;;;;;;4919521;29;20052;-85
2024/01/22 08:11:54;;;;;;;14.63;2.92;;;10.60;99.90;;;;;;4918933;29;20049;-84
2024/01/22 08:14:19;;;;;;;12.48;2.80;;;10.60;99.90;;;;;;4918788;29;20524;-85
2024/01/22 08:16:46;;;;;;;13.77;3.03;;;10.60;99.90;;;;;;4919337;29;20457;-84
2024/01/22 08:19:12;;;;;;;12.77;2.92;;;10.60;99.90;;;;;;4937412;29;20929;-85
2024/01/22 08:21:37;;;;;;;15.43;3.15;;;10.40;99.90;;;;;;4920251;29;20075;-85
2024/01/22 08:24:03;;;;;;;14.52;3.50;;;10.40;99.90;;;;;;4919241;29;20075;-84
2024/01/22 08:26:29;;;;;;;13.25;3.05;;;10.50;99.90;;;;;;4920017;29;20134;-85
2024/01/22 08:28:54;;;;;;;12.93;3.05;;;11.50;99.90;;;;;;4919962;29;20043;-85
2024/01/22 08:31:20;;;;;;;12.27;2.80;;;10.40;99.90;;;;;;4918942;29;20059;-84
2024/01/22 08:33:46;;;;;;;12.98;2.70;;;10.40;99.90;;;;;;4936838;29;20048;-85
2024/01/22 08:36:11;;;;;;;13.15;2.80;;;11.20;99.90;;;;;;4919652;29;20051;-86
2024/01/22 08:38:37;;;;;;;12.05;3.20;;;10.40;99.90;;;;;;4919519;29;20048;-86
2024/01/22 08:41:08;;;;;;;10.43;2.40;;;11.00;99.90;;;;;;4919355;29;20048;-86
2024/01/22 08:43:33;;;;;;;9.38;2.63;;;10.40;99.90;;;;;;4919482;29;20054;-85
2024/01/22 08:45:59;;;;;;;11.07;3.40;;;10.40;99.90;;;;;;4918512;29;20043;-84
2024/01/22 08:48:25;;;;;;;14.45;2.78;;;12.00;99.90;;;;;;4919499;29;20043;-86
2024/01/22 08:50:51;;;;;;;10.13;2.55;;;10.40;99.90;;;;;;4919548;29;20403;-85
2024/01/22 08:53:17;;;;;;;11.65;2.65;;;10.50;99.90;;;;;;4918439;29;20051;-85
2024/01/22 08:55:42;;;;;;;11.35;3.00;;;11.20;99.90;;;;;;4918876;29;20150;-85
2024/01/22 08:58:09;;;;;;;12.70;3.13;;;11.70;99.90;;;;;;4919357;29;20126;-85
2024/01/22 09:00:35;;;;;;;10.88;3.10;;;10.40;99.90;;;;;;4918810;29;20099;-85
2024/01/22 09:03:01;;;;;;;14.52;3.00;;;10.30;99.90;;;;;;4919345;29;20047;-85
2024/01/22 09:05:26;;;;;;;10.30;3.10;;;12.00;99.90;;;;;;4919564;29;20054;-85
2024/01/22 09:07:52;;;;;;;13.73;3.33;;;10.30;99.90;;;;;;4918182;29;20481;-86
2024/01/22 09:10:18;;;;;;;10.23;3.00;;;10.30;99.90;;;;;;4919157;29;20043;-86
2024/01/22 09:12:44;;;;;;;18.27;3.15;;;10.30;99.90;;;;;;4919017;29;20047;-86
2024/01/22 09:15:12;;;;;;;11.27;2.60;;;10.80;99.90;;;;;;4917988;29;20059;-86
2024/01/22 09:17:39;;;;;;;11.73;2.67;;;10.30;99.90;;;;;;4918778;29;20069;-86
2024/01/22 09:20:06;;;;;;;10.18;2.42;;;10.30;99.90;;;;;;4913545;29;20054;-87
2024/01/22 09:22:31;;;;;;;8.15;2.45;;;10.30;99.90;;;;;;4914374;29;20086;-85
2024/01/22 09:24:57;;;;;;;10.70;2.08;;;11.30;99.90;;;;;;4909563;29;20055;-86
2024/01/22 09:27:23;;;;;;;14.48;2.10;;;10.30;99.90;;;;;;4923802;29;20039;-86
2024/01/22 09:29:49;;;;;;;8.82;2.03;;;10.20;99.90;;;;;;4906111;29;20106;-86
2024/01/22 09:32:15;;;;;;;9.73;2.40;;;10.30;99.90;;;;;;4925661;29;20488;-86
2024/01/22 09:34:41;;;;;;;11.63;2.67;;;10.30;99.90;;;;;;4906374;29;20048;-87
2024/01/22 09:37:06;;;;;;;13.00;2.40;;;10.20;99.90;;;;;;4907279;29;20542;-88
2024/01/22 09:39:32;;;;;;;11.02;2.80;;;10.20;99.90;;;;;;4910034;29;20445;-87
2024/01/22 09:42:02;;;;;;;11.02;2.80;;;10.30;99.90;;;;;;4909416;29;20052;-89
2024/01/22 09:44:28;;;;;;;12.73;2.92;;;10.30;99.90;;;;;;4914747;29;20051;-90
2024/01/22 09:46:54;;;;;;;14.45;3.78;;;10.20;99.90;;;;;;4906233;29;20052;-91
2024/01/22 09:49:20;;;;;;;15.60;4.55;;;10.20;99.90;;;;;;4920469;29;20090;-89
2024/01/22 09:51:55;;;;;;;13.57;2.90;;;10.20;99.90;;;;;;4913920;29;20127;-90
2024/01/22 09:54:29;;;;;;;17.13;4.03;;;11.80;99.90;;;;;;4908349;29;20047;-92
2024/01/22 09:56:58;;;;;;;24.52;4.20;;;11.80;99.90;;;;;;4905803;29;20567;-90
2024/01/22 09:59:33;;;;;;;25.27;4.40;;;11.70;99.90;;;;;;4915181;29;20050;-91
2024/01/22 10:01:59;;;;;;;17.10;4.45;;;10.30;99.90;;;;;;4908948;29;20048;-87
2024/01/22 10:04:31;;;;;;;22.05;4.03;;;9.30;99.90;;;;;;4908587;29;20063;-91
2024/01/22 10:07:07;;;;;;;25.55;4.28;;;10.30;99.90;;;;;;4908808;29;20074;-91
2024/01/22 10:09:33;;;;;;;26.08;6.38;;;11.50;99.90;;;;;;4906978;29;20088;-91
2024/01/22 10:12:02;;;;;;;21.80;4.38;;;11.70;99.90;;;;;;4919767;29;20547;-88
2024/01/22 10:14:35;;;;;;;20.95;4.78;;;10.30;99.90;;;;;;4908823;29;20044;-89
2024/01/22 10:17:20;;;;;;;26.58;5.57;;;10.30;99.90;;;;;;4913738;29;20044;-89
2024/01/22 10:19:48;;;;;;;24.60;5.28;;;10.30;99.90;;;;;;4905628;29;20054;-91
2024/01/22 10:22:21;;;;;;;22.52;4.82;;;10.40;99.90;;;;;;4906546;29;20098;-89
2024/01/22 10:25:02;;;;;;;24.20;4.55;;;10.30;99.90;;;;;;4923256;29;20051;-91
2024/01/22 10:27:28;;;;;;;20.75;4.40;;;10.30;99.90;;;;;;4909060;29;20556;-90
2024/01/22 10:30:10;;;;;;;28.33;4.72;;;10.20;99.90;;;;;;4905964;29;20147;-89
2024/01/22 10:32:36;;;;;;;23.23;4.82;;;10.30;99.90;;;;;;4920531;29;20059;-91
2024/01/22 10:35:03;;;;;;;31.08;5.60;;;11.20;99.90;;;;;;4925764;29;20043;-92
2024/01/22 10:37:29;;;;;;;20.75;4.20;;;10.20;99.90;;;;;;4908422;29;20047;-90
2024/01/22 10:40:09;;;;;;;26.77;4.88;;;11.30;99.90;;;;;;4918484;29;20055;-90
2024/01/22 10:42:35;;;;;;;27.85;4.68;;;10.30;99.90;;;;;;4915783;29;20054;-90
2024/01/22 10:45:07;;;;;;;24.73;5.28;;;10.20;99.90;;;;;;4912519;29;20428;-90
2024/01/22 10:47:34;;;;;;;22.95;5.55;;;10.30;99.90;;;;;;4913493;29;20043;-90
2024/01/22 10:50:04;;;;;;;25.60;4.80;;;10.20;99.90;;;;;;4908904;29;20051;-91
2024/01/22 10:52:31;;;;;;;31.02;5.72;;;11.50;99.90;;;;;;4915667;29;20040;-91
2024/01/22 10:54:58;;;;;;;28.38;6.18;;;10.20;99.90;;;;;;4913938;29;20043;-90
2024/01/22 10:57:41;;;;;;;29.63;5.20;;;10.20;99.90;;;;;;4911968;29;20048;-90
2024/01/22 11:00:09;;;;;;;27.33;4.80;;;10.20;99.90;;;;;;4917199;29;20510;-91
2024/01/22 11:02:39;;;;;;;25.92;5.10;;;10.20;99.90;;;;;;4920331;29;20043;-91
2024/01/22 11:05:11;;;;;;;29.40;5.35;;;11.00;99.90;;;;;;4921036;29;20061;-92
2024/01/22 11:07:39;;;;;;;25.23;5.15;;;10.20;99.90;;;;;;4921996;29;20062;-94
2024/01/22 11:10:08;;;;;;;33.90;5.82;;;10.10;99.90;;;;;;4922031;29;20043;-92
2024/01/22 11:12:43;;;;;;;28.48;5.43;;;10.20;99.90;;;;;;4922037;29;20130;-92
2024/01/22 11:15:10;;;;;;;27.00;5.20;;;10.10;99.90;;;;;;4923727;29;20058;-93
2024/01/22 11:17:35;;;;;;;25.60;5.30;;;10.20;99.90;;;;;;4922716;29;20143;-91
2024/01/22 11:20:18;;;;;;;27.45;4.97;;;10.30;99.90;;;;;;4923102;29;20130;-96
2024/01/22 11:23:16;;;;;;;28.95;5.10;;;10.10;99.90;;;;;;4924602;29;20074;-89
2024/01/22 11:25:42;;;;;;;25.63;5.45;;;10.80;99.90;;;;;;4896710;29;20492;-89
2024/01/22 11:28:10;;;;;;;25.75;5.07;;;10.30;99.90;;;;;;4920304;29;20048;-87
2024/01/22 11:30:41;;;;;;;24.75;4.60;;;10.30;99.90;;;;;;4920551;29;20058;-87
2024/01/22 11:33:25;;;;;;;23.67;4.28;;;10.40;99.90;;;;;;4920607;29;20106;-87
2024/01/22 11:35:51;;;;;;;;;;;10.30;99.90;;;;;;4920930;29;20060;-87
2024/01/22 11:38:42;;;;;;;28.42;5.22;;;10.20;99.90;;;;;;4920833;29;19970;-87
2024/01/22 11:41:08;;;;;;;30.20;5.38;;;10.20;99.90;;;;;;4920268;29;20059;-86
2024/01/22 11:43:33;;;;;;;25.40;5.03;;;10.20;99.90;;;;;;4921263;29;20044;-87
2024/01/22 11:46:14;;;;;;;23.13;4.95;;;10.30;99.90;;;;;;4920387;29;20048;-87
2024/01/22 11:48:39;;;;;;;23.17;6.05;;;10.20;99.90;;;;;;4935242;29;20407;-87
2024/01/22 11:51:06;;;;;;;29.65;5.57;;;10.20;99.90;;;;;;4939502;29;20133;-87
2024/01/22 11:53:31;;;;;;;26.77;4.95;;;10.30;99.90;;;;;;4939576;29;20043;-86
2024/01/22 11:55:57;;;;;;;25.95;4.80;;;10.30;99.90;;;;;;4938661;29;20109;-87
2024/01/22 11:58:23;;;;;;;24.27;4.50;;;10.20;99.90;;;;;;4939610;29;20460;-87
2024/01/22 12:00:52;;;;;;;21.98;4.65;;;10.20;99.90;;;;;;4939812;29;20043;-87
2024/01/22 12:03:29;;;;;;;23.20;4.90;;;10.20;99.90;;;;;;4938865;29;20047;-87
2024/01/22 12:06:07;;;;;;;26.38;5.72;;;10.20;99.90;;;;;;4939484;29;20442;-86
2024/01/22 12:08:34;;;;;;;19.48;4.47;;;10.10;99.90;;;;;;4939780;29;20067;-89
2024/01/22 12:11:12;;;;;;;24.80;4.40;;;10.10;99.90;;;;;;4938520;29;20415;-87
2024/01/22 12:13:41;;;;;;;22.98;5.55;;;10.10;99.90;;;;;;4939187;29;20400;-89
2024/01/22 12:16:16;;;;;;;23.25;5.13;;;11.30;99.90;;;;;;4938348;29;20094;-87
2024/01/22 12:18:43;;;;;;;24.73;4.68;;;10.10;99.90;;;;;;4929018;23;20047;-87
2024/01/22 12:21:12;;;;;;;21.48;4.65;;;10.20;99.90;;;;;;4920140;29;20059;-87
2024/01/22 12:23:39;;;;;;;24.40;4.57;;;10.10;99.90;;;;;;4919705;29;20047;-88
2024/01/22 12:26:21;;;;;;;24.13;4.53;;;10.00;99.90;;;;;;4920041;29;20051;-87
2024/01/22 12:28:53;;;;;;;24.65;4.43;;;10.10;99.90;;;;;;4920248;29;20047;-87
2024/01/22 12:31:22;;;;;;;20.58;4.47;;;10.10;99.90;;;;;;4921235;29;20098;-87
2024/01/22 12:33:48;;;;;;;24.50;4.20;;;10.10;99.90;;;;;;4919545;29;20044;-87
2024/01/22 12:36:15;;;;;;;19.20;4.00;;;11.00;99.90;;;;;;4919601;29;20062;-87
2024/01/22 12:38:53;;;;;;;24.27;3.90;;;10.10;99.90;;;;;;4919316;29;20051;-87
2024/01/22 12:41:19;;;;;;;18.20;3.97;;;10.10;99.90;;;;;;4920139;29;20369;-88
2024/01/22 12:43:46;;;;;;;23.00;4.35;;;10.10;99.90;;;;;;4920225;29;20099;-86
2024/01/22 12:46:15;;;;;;;18.30;4.05;;;10.20;99.90;;;;;;4919397;29;20056;-87
2024/01/22 12:48:44;;;;;;;19.02;4.03;;;10.00;99.90;;;;;;4919767;29;20050;-88
2024/01/22 12:51:10;;;;;;;16.77;3.78;;;9.90;99.90;;;;;;4918762;29;20043;-88
2024/01/22 12:53:36;;;;;;;15.43;3.63;;;9.90;99.90;;;;;;4919704;29;20139;-87
2024/01/22 12:56:05;;;;;;;21.70;4.10;;;11.10;99.90;;;;;;4919676;29;20075;-87
2024/01/22 12:58:31;;;;;;;20.60;4.03;;;9.80;99.90;;;;;;4918914;29;20040;-87
2024/01/22 13:00:58;;;;;;;16.92;4.55;;;9.80;99.90;;;;;;4919686;29;20496;-87
2024/01/22 13:03:24;;;;;;;20.17;4.28;;;9.80;99.90;;;;;;4919646;29;20079;-87
2024/01/22 13:05:50;;;;;;;17.10;4.00;;;9.70;99.90;;;;;;4919033;29;20087;-87
2024/01/22 13:08:16;;;;;;;22.05;4.43;;;9.80;99.90;;;;;;4919473;29;20139;-87
2024/01/22 13:10:42;;;;;;;22.02;4.45;;;9.80;99.90;;;;;;4951720;28;20147;-88
2024/01/22 13:13:08;;;;;;;19.00;4.20;;;9.80;99.90;;;;;;4918385;29;20058;-87
2024/01/22 13:15:34;;;;;;;28.42;4.30;;;9.90;99.90;;;;;;4919286;29;20055;-87
2024/01/22 13:18:00;;;;;;;21.88;3.85;;;9.90;99.90;;;;;;4919068;29;20083;-87
2024/01/22 13:20:26;;;;;;;21.17;5.20;;;10.00;99.90;;;;;;4919277;29;20043;-88
2024/01/22 13:22:52;;;;;;;20.87;3.73;;;10.00;99.90;;;;;;4919309;29;20039;-87
2024/01/22 13:25:19;;;;;;;21.20;3.90;;;10.00;99.90;;;;;;4919510;29;20118;-87
2024/01/22 13:27:45;;;;;;;17.00;3.23;;;10.00;99.90;;;;;;4918765;29;20140;-88
2024/01/22 13:30:12;;;;;;;18.23;3.60;;;10.00;99.90;;;;;;4951144;29;20066;-88
2024/01/22 13:32:37;;;;;;;18.40;3.50;;;9.90;99.90;;;;;;4919624;29;20082;-87
2024/01/22 13:35:04;;;;;;;21.92;3.78;;;9.80;99.90;;;;;;4918494;29;20075;-87
2024/01/22 13:37:30;;;;;;;24.00;4.55;;;9.80;99.90;;;;;;4919302;29;20496;-87
2024/01/22 13:39:56;;;;;;;22.95;4.00;;;9.70;99.90;;;;;;4919272;29;20094;-87
2024/01/22 13:42:22;;;;;;;19.95;3.65;;;9.80;99.90;;;;;;4918055;29;20036;-87
2024/01/22 13:44:47;;;;;;;18.13;3.60;;;10.40;99.90;;;;;;4918922;29;20408;-87
2024/01/22 13:47:14;;;;;;;23.50;3.90;;;9.80;99.90;;;;;;4917987;29;20044;-88
2024/01/22 13:49:39;;;;;;;19.08;3.42;;;9.80;99.90;;;;;;4919193;29;20070;-87
2024/01/22 13:52:06;;;;;;;17.85;3.67;;;9.80;99.90;;;;;;4919249;29;20496;-88
2024/01/22 13:54:32;;;;;;;17.60;3.40;;;9.80;99.90;;;;;;4918270;29;20387;-87
2024/01/22 13:56:58;;;;;;;23.52;3.70;;;9.70;99.90;;;;;;4918467;29;20048;-88
2024/01/22 13:59:24;;;;;;;17.00;3.95;;;9.70;99.90;;;;;;4918994;29;20170;-87
2024/01/22 14:01:52;;;;;;;21.35;3.60;;;9.70;99.90;;;;;;4935181;29;20500;-88
2024/01/22 14:04:18;;;;;;;20.67;4.30;;;9.70;99.90;;;;;;4918725;29;20544;-88
2024/01/22 14:06:44;;;;;;;22.35;4.32;;;9.70;99.90;;;;;;4918874;29;20080;-88
2024/01/22 14:09:10;;;;;;;18.55;3.72;;;9.60;99.90;;;;;;4917325;29;20495;-87
2024/01/22 14:11:36;;;;;;;24.77;3.80;;;9.60;99.90;;;;;;4918461;29;20055;-87
2024/01/22 14:14:02;;;;;;;18.93;3.33;;;9.70;99.90;;;;;;4918430;29;20090;-87
2024/01/22 14:16:28;;;;;;;16.77;4.13;;;9.80;99.90;;;;;;4917971;29;20047;-88
2024/01/22 14:18:54;;;;;;;24.00;4.10;;;10.80;99.90;;;;;;4917878;29;20549;-88
2024/01/22 14:21:20;;;;;;;19.93;3.63;;;9.80;99.90;;;;;;4918555;29;20048;-88
2024/01/22 14:23:46;;;;;;;18.97;3.37;;;10.60;99.90;;;;;;4918377;29;20071;-88
2024/01/22 14:26:11;;;;;;;17.37;3.30;;;9.70;99.90;;;;;;4918390;29;20460;-88
2024/01/22 14:28:38;;;;;;;16.87;3.10;;;9.70;99.90;;;;;;4918419;29;20082;-88
2024/01/22 14:31:04;;;;;;;23.13;3.67;;;10.00;99.90;;;;;;4917877;29;20052;-87
2024/01/22 14:33:30;;;;;;;19.03;3.03;;;9.60;99.90;;;;;;4918621;29;20077;-87
2024/01/22 14:35:56;;;;;;;18.17;4.35;;;9.50;99.90;;;;;;4918183;29;20477;-87
2024/01/22 14:38:22;;;;;;;14.10;3.10;;;10.40;99.90;;;;;;4917856;29;20439;-88
2024/01/22 14:40:47;;;;;;;22.10;3.35;;;9.50;99.90;;;;;;4918608;29;20047;-87
2024/01/22 14:43:14;;;;;;;21.48;4.07;;;10.50;99.90;;;;;;4917925;29;20059;-88
2024/01/22 14:45:43;;;;;;;18.35;3.50;;;10.20;99.90;;;;;;4918007;29;20074;-87
2024/01/22 14:48:12;;;;;;;19.92;4.35;;;10.60;99.90;;;;;;4917635;29;20063;-87
2024/01/22 14:50:38;;;;;;;23.10;3.72;;;9.90;99.90;;;;;;4917647;29;20130;-87
2024/01/22 14:53:08;;;;;;;22.50;4.45;;;9.40;99.90;;;;;;4917642;29;20100;-88
2024/01/22 14:55:34;;;;;;;18.92;3.40;;;9.80;99.90;;;;;;4920175;29;20130;-90
2024/01/22 14:58:05;;;;;;;19.45;4.28;;;9.40;99.90;;;;;;4917270;29;20537;-90
2024/01/22 15:00:33;;;;;;;14.00;3.42;;;9.40;99.90;;;;;;4918640;29;20552;-87
2024/01/22 15:02:59;;;;;;;20.30;4.25;;;9.40;99.90;;;;;;4918245;29;20043;-88
2024/01/22 15:05:25;;;;;;;17.70;4.53;;;9.40;99.90;;;;;;4934360;29;20066;-88
2024/01/22 15:07:51;;;;;;;20.63;3.88;;;10.20;99.90;;;;;;4918611;29;20122;-88
2024/01/22 15:10:17;;;;;;;15.02;3.53;;;9.20;99.90;;;;;;4918496;29;20484;-88
2024/01/22 15:12:44;;;;;;;17.52;3.10;;;9.10;99.90;;;;;;4917933;29;20048;-88
2024/01/22 15:15:10;;;;;;;17.07;3.83;;;10.00;99.90;;;;;;4917705;29;20441;-90
2024/01/22 15:17:40;;;;;;;20.05;3.30;;;9.10;99.90;;;;;;4918715;29;20114;-93